Decoded Metar for KCDW (CALDWELL in NJ, USA) (IATA:CDW) | Meteo·Mobile Aviation Weather
aviador You're here:

KCDW Decoded Metar

CALDWELL in NJ, USA
Report Time2018-08-22 05:27:00
UTC Time2018-08-22 05:36:50
Flight Rules ifr IFR
Wind070° at 04 kt
W.Decomp.*RWY 10: 3.8 kt HW 1.2 kt LCW
RWY 04: 2.9 kt HW 2.7 kt RCW
W.Rank070° ranks 8
Current wind is below 070° avg. (6.3)
Visibility6437 m
Phenomena:Light Rain
Mist
Clouds:Overcast 009 Hf
Ceiling900 ft
Temp21°C (ISA +6)
Dew Point21°C (100% RH)
QNH1010 hPa
Density Alt1,388 ft
Elevation210 ft
Report Wrong Elevation
Raw Report
KCDW 220527Z AUTO 07004KT 4SM -RA BR OVC009 21/21 A2982 RMK AO2
P0029 T02110211=

Extra information for KCDW:More info

Metar Taf Metar & Taf Last 4 Metars F.Rules Stats Wind Profile Meteogram Temp Stats Airport Information Weather charts Add Link Nearby VenuesMetar ALERT Operation Metar Decoded Social comments

AIRNAV info for KCDW